Time;durP1;ratioP1;P1;durP2;ratioP2;P2;SDS_P1;SDS_P2;PMS_P1;PMS_P2;Temp;Humidity;BMP_temperature;BMP_pressure;BME280_temperature;BME280_humidity;BME280_pressure;Samples;Min_cycle;Max_cycle;Signal;HPM_P1;HPM_P2
2023/09/22 00:00:43;;;;;;;1999.90;999.90;;;;;;;14.56;100.00;99779.31;10540802;28;20055;-72
2023/09/22 00:05:45;;;;;;;1999.90;999.90;;;;;;;14.33;100.00;99776.16;10540746;28;20468;-73
2023/09/22 00:10:48;;;;;;;1999.90;999.90;;;;;;;14.41;100.00;99795.53;10540172;28;20150;-72
2023/09/22 00:15:50;;;;;;;1999.90;999.90;;;;;;;14.41;100.00;99800.81;10522517;28;20050;-73
2023/09/22 00:20:54;;;;;;;1999.90;999.90;;;;;;;14.27;100.00;99799.41;10522392;28;20048;-72
2023/09/22 00:25:57;;;;;;;1999.90;999.90;;;;;;;14.20;100.00;99800.91;10539570;28;20481;-72
2023/09/22 00:30:59;;;;;;;1999.90;999.90;;;;;;;14.34;100.00;99789.16;10540031;28;20135;-72
2023/09/22 00:36:02;;;;;;;1999.90;999.90;;;;;;;13.90;100.00;99783.38;10539898;28;20051;-73
2023/09/22 00:41:05;;;;;;;1999.90;999.90;;;;;;;14.26;100.00;99781.13;10521293;28;20507;-72
2023/09/22 00:46:07;;;;;;;1999.90;999.90;;;;;;;14.04;100.00;99785.66;10539785;28;20127;-72
2023/09/22 00:51:10;;;;;;;1999.90;999.90;;;;;;;13.77;100.00;99793.31;10521927;28;20048;-72
2023/09/22 00:56:13;;;;;;;1999.90;999.90;;;;;;;13.81;100.00;99792.09;10521027;28;20040;-72
2023/09/22 01:01:19;;;;;;;1999.90;999.90;;;;;;;13.43;100.00;99789.19;10521758;28;20052;-73
2023/09/22 01:06:22;;;;;;;1999.90;999.90;;;;;;;13.45;100.00;99800.41;10520921;28;20067;-73
2023/09/22 01:11:24;;;;;;;1999.90;999.90;;;;;;;13.32;100.00;99813.75;10520533;28;20083;-73
2023/09/22 01:16:27;;;;;;;1999.90;999.90;;;;;;;13.45;100.00;99810.06;10539097;28;20071;-73
2023/09/22 01:21:34;;;;;;;1999.90;999.90;;;;;;;13.25;100.00;99827.50;10521218;28;20059;-73
2023/09/22 01:26:36;;;;;;;1999.90;999.90;;;;;;;13.00;100.00;99833.00;10521563;28;20040;-72
2023/09/22 01:31:39;;;;;;;1999.90;999.90;;;;;;;13.14;100.00;99826.59;10520357;28;20052;-72
2023/09/22 01:36:41;;;;;;;1999.90;999.90;;;;;;;13.03;100.00;99834.56;10538284;28;20109;-73
2023/09/22 01:41:43;;;;;;;1999.90;999.90;;;;;;;13.12;100.00;99831.16;10543101;28;20052;-73
2023/09/22 01:46:46;;;;;;;1999.90;999.90;;;;;;;12.88;100.00;99835.78;10527524;28;20054;-73
2023/09/22 01:51:48;;;;;;;1999.90;999.90;;;;;;;12.61;100.00;99839.75;10545321;28;20412;-73
2023/09/22 01:56:51;;;;;;;1999.90;999.90;;;;;;;12.52;100.00;99848.34;10545733;28;20047;-73
2023/09/22 02:01:53;;;;;;;1999.90;999.90;;;;;;;12.50;100.00;99848.47;10527033;28;20514;-73
2023/09/22 02:06:56;;;;;;;1999.90;999.90;;;;;;;12.32;100.00;99850.78;10545332;28;20044;-73
2023/09/22 02:11:58;;;;;;;1999.90;999.90;;;;;;;12.21;100.00;99856.06;10544396;28;20052;-73
2023/09/22 02:17:00;;;;;;;1999.90;999.90;;;;;;;12.36;100.00;99856.63;10527091;28;20046;-73
2023/09/22 02:22:03;;;;;;;1999.90;999.90;;;;;;;12.24;100.00;99846.16;10544772;28;20062;-73
2023/09/22 02:27:06;;;;;;;1999.90;999.90;;;;;;;12.29;100.00;99871.19;10544544;28;20054;-73
2023/09/22 02:32:08;;;;;;;1999.90;999.90;;;;;;;12.18;100.00;99865.00;10544340;28;20052;-73
2023/09/22 02:37:10;;;;;;;1999.90;999.90;;;;;;;12.19;100.00;99858.81;10525548;28;20056;-73
2023/09/22 02:42:13;;;;;;;1999.90;999.90;;;;;;;12.27;100.00;99856.41;10543929;28;20052;-73
2023/09/22 02:47:16;;;;;;;1999.90;999.90;;;;;;;12.21;100.00;99853.44;10543154;28;20460;-73
2023/09/22 02:52:18;;;;;;;1999.90;999.90;;;;;;;12.13;100.00;99863.72;10524436;28;20481;-73
2023/09/22 02:57:21;;;;;;;1999.90;999.90;;;;;;;12.01;100.00;99868.13;10525313;28;20221;-73
2023/09/22 03:02:23;;;;;;;1999.90;999.90;;;;;;;12.02;100.00;99875.88;10543124;28;20055;-73
2023/09/22 03:07:26;;;;;;;1999.90;999.90;;;;;;;12.13;100.00;99875.03;10524948;28;20044;-73
2023/09/22 03:12:28;;;;;;;1999.90;999.90;;;;;;;12.16;100.00;99871.34;10542129;28;20135;-73
2023/09/22 03:17:31;;;;;;;1999.90;999.90;;;;;;;12.33;100.00;99862.13;10542430;28;20093;-73
2023/09/22 03:22:34;;;;;;;1999.90;999.90;;;;;;;12.13;100.00;99859.28;10541697;28;20637;-73
2023/09/22 03:27:37;;;;;;;1999.90;999.90;;;;;;;12.25;100.00;99858.34;10542100;28;20048;-73
2023/09/22 03:32:40;;;;;;;1999.90;999.90;;;;;;;12.12;100.00;99855.00;10524006;28;20101;-73
2023/09/22 03:37:44;;;;;;;1999.90;999.90;;;;;;;12.16;100.00;99860.84;10524011;28;20044;-73
2023/09/22 03:42:46;;;;;;;1999.90;999.90;;;;;;;12.19;100.00;99860.59;10541598;28;20052;-73
2023/09/22 03:47:48;;;;;;;1999.90;999.90;;;;;;;12.00;100.00;99866.44;10522804;28;20479;-73
2023/09/22 03:52:51;;;;;;;1999.90;999.90;;;;;;;12.17;100.00;99870.38;10541180;28;20086;-73
2023/09/22 03:57:54;;;;;;;1999.90;999.90;;;;;;;12.39;100.00;99869.50;10523150;28;20044;-74
2023/09/22 04:02:56;;;;;;;1999.90;999.90;;;;;;;12.29;100.00;99879.06;10522640;28;20076;-74
2023/09/22 04:07:58;;;;;;;1999.90;999.90;;;;;;;12.32;100.00;99865.69;10522852;28;20123;-73
2023/09/22 04:13:02;;;;;;;1999.90;999.90;;;;;;;12.39;100.00;99874.75;10539723;28;20478;-73
2023/09/22 04:18:05;;;;;;;1999.90;999.90;;;;;;;12.38;100.00;99875.72;10506319;28;20139;-73
2023/09/22 04:23:08;;;;;;;1999.90;999.90;;;;;;;12.49;100.00;99867.84;10522316;28;20048;-73
2023/09/22 04:28:17;;;;;;;1999.90;999.90;;;;;;;12.52;100.00;99877.22;10540189;28;20071;-73
2023/09/22 04:33:20;;;;;;;1999.90;999.90;;;;;;;12.49;100.00;99882.72;10540036;28;20048;-73
2023/09/22 04:38:22;;;;;;;1999.90;999.90;;;;;;;12.56;100.00;99887.38;10539850;28;20130;-73
2023/09/22 04:43:25;;;;;;;1999.90;999.90;;;;;;;12.66;100.00;99884.00;10539128;28;20044;-74
2023/09/22 04:48:27;;;;;;;1999.90;999.90;;;;;;;12.59;100.00;99881.03;10539786;28;20076;-73
2023/09/22 04:53:29;;;;;;;1999.90;999.90;;;;;;;12.67;100.00;99881.25;10505174;28;20056;-74
2023/09/22 04:58:33;;;;;;;1999.90;999.90;;;;;;;12.75;100.00;99878.00;10538812;28;20052;-73
2023/09/22 05:03:35;;;;;;;1999.90;999.90;;;;;;;12.74;100.00;99879.81;10521479;28;20047;-74
2023/09/22 05:08:38;;;;;;;1999.90;999.90;;;;;;;12.56;100.00;99878.69;10521416;28;20051;-74
2023/09/22 05:13:40;;;;;;;1999.90;999.90;;;;;;;12.78;100.00;99883.03;10538502;28;20390;-74
2023/09/22 05:18:42;;;;;;;1999.90;999.90;;;;;;;12.68;100.00;99885.56;10528958;28;20052;-73
2023/09/22 05:23:46;;;;;;;1999.90;999.90;;;;;;;12.64;100.00;99902.50;10528601;28;20518;-74
2023/09/22 05:28:51;;;;;;;1999.90;999.90;;;;;;;12.57;100.00;99903.97;10546256;28;20048;-74
2023/09/22 05:33:55;;;;;;;1999.90;999.90;;;;;;;12.51;100.00;99904.44;10512596;28;20059;-74
2023/09/22 05:38:58;;;;;;;1999.90;999.90;;;;;;;12.49;100.00;99907.22;10546470;28;20048;-74
2023/09/22 05:44:00;;;;;;;1999.90;999.90;;;;;;;12.44;100.00;99914.63;10546547;28;20052;-74
2023/09/22 05:49:05;;;;;;;1999.90;999.90;;;;;;;12.37;100.00;99921.28;10527510;28;20052;-73
2023/09/22 05:54:10;;;;;;;1999.90;999.90;;;;;;;12.48;100.00;99931.78;10545909;28;20051;-74
2023/09/22 05:59:13;;;;;;;1999.90;999.90;;;;;;;12.41;100.00;99926.19;10527642;28;20044;-74
2023/09/22 06:04:15;;;;;;;1999.90;999.90;;;;;;;12.42;100.00;99933.13;10526962;28;20580;-74
2023/09/22 06:09:19;;;;;;;1999.90;999.90;;;;;;;12.39;100.00;99929.88;10526898;28;20048;-74
2023/09/22 06:14:22;;;;;;;1999.90;999.90;;;;;;;12.43;100.00;99928.69;10527386;28;20058;-73
2023/09/22 06:19:24;;;;;;;1999.90;999.90;;;;;;;12.49;100.00;99943.97;10526174;28;20070;-74
2023/09/22 06:24:27;;;;;;;1999.90;999.90;;;;;;;12.48;100.00;99938.84;10503544;22;20133;-73
2023/09/22 06:29:30;;;;;;;1999.90;999.90;;;;;;;12.59;100.00;99939.66;10377128;28;20100;-73
2023/09/22 06:34:32;;;;;;;1999.90;999.90;;;;;;;12.76;100.00;99942.69;10361456;28;20057;-73
2023/09/22 06:39:35;;;;;;;1999.90;999.90;;;;;;;12.72;100.00;99941.28;10377910;28;20052;-73
2023/09/22 06:44:37;;;;;;;1999.90;999.90;;;;;;;12.93;100.00;99946.63;10360482;28;20387;-73
2023/09/22 06:49:40;;;;;;;1999.90;999.90;;;;;;;12.92;100.00;99958.91;10378280;28;20073;-73
2023/09/22 06:54:42;;;;;;;1999.90;999.90;;;;;;;13.14;100.00;99947.47;10378067;28;20050;-74
2023/09/22 06:59:45;;;;;;;1999.90;999.90;;;;;;;13.30;100.00;99938.38;10377106;28;20082;-73
2023/09/22 07:04:47;;;;;;;1999.90;999.90;;;;;;;13.32;100.00;99944.34;10378339;28;20056;-73
2023/09/22 07:09:50;;;;;;;1999.90;999.90;;;;;;;13.46;100.00;99945.84;10375620;28;20132;-73
2023/09/22 07:14:52;;;;;;;1999.90;999.90;;;;;;;13.53;100.00;99946.97;10377269;28;20045;-73
2023/09/22 07:19:55;;;;;;;1999.90;999.90;;;;;;;13.53;100.00;99946.97;10376925;28;20046;-72
2023/09/22 07:24:57;;;;;;;1999.90;999.90;;;;;;;14.00;100.00;99931.59;10376522;28;20061;-72
2023/09/22 07:30:00;;;;;;;1999.90;999.90;;;;;;;14.05;100.00;99944.38;10376646;28;20050;-73
2023/09/22 07:35:02;;;;;;;1999.90;999.90;;;;;;;14.12;100.00;99948.16;10358475;28;20567;-78
2023/09/22 07:40:08;;;;;;;1999.90;999.90;;;;;;;14.88;100.00;99946.88;10375067;28;20057;-66
2023/09/22 07:45:12;;;;;;;1999.90;999.90;;;;;;;15.17;100.00;99941.66;10376141;28;20057;-74
2023/09/22 07:50:15;;;;;;;1999.90;999.90;;;;;;;15.36;100.00;99951.34;10376022;28;20158;-73
2023/09/22 07:55:18;;;;;;;1999.90;999.90;;;;;;;15.84;100.00;99957.59;10358375;28;20057;-74
2023/09/22 08:00:21;;;;;;;1999.90;999.90;;;;;;;15.86;100.00;99953.00;10373713;28;20406;-75
2023/09/22 08:05:24;;;;;;;1999.90;999.90;;;;;;;16.47;100.00;99967.50;10373595;28;20128;-75
2023/09/22 08:10:28;;;;;;;1999.90;999.90;;;;;;;16.48;100.00;99959.41;10375350;28;20048;-75
2023/09/22 08:15:31;;;;;;;1999.90;999.90;;;;;;;16.67;97.21;99966.41;10375223;28;20133;-74
2023/09/22 08:20:34;;;;;;;1999.90;999.90;;;;;;;17.34;94.82;99975.88;10374524;28;20128;-73
2023/09/22 08:25:38;;;;;;;1999.90;999.90;;;;;;;17.67;92.16;99969.03;10373061;28;20076;-74
2023/09/22 08:30:41;;;;;;;1999.90;999.90;;;;;;;17.83;88.21;99965.66;10373793;28;20046;-74
2023/09/22 08:35:49;;;;;;;1999.90;999.90;;;;;;;18.11;84.73;99966.38;10373645;28;20046;-74
2023/09/22 08:41:06;;;;;;;1999.90;999.90;;;;;;;19.06;84.93;99970.69;10373689;28;20050;-75
2023/09/22 08:46:09;;;;;;;1999.90;999.90;;;;;;;19.11;82.56;99965.72;10374605;28;20060;-72
2023/09/22 08:51:11;;;;;;;1999.90;999.90;;;;;;;19.04;80.52;99967.38;10376639;28;20487;-75
2023/09/22 08:56:14;;;;;;;1999.90;999.90;;;;;;;19.06;77.99;99982.16;10381532;28;20056;-67
2023/09/22 09:01:17;;;;;;;1999.90;999.90;;;;;;;19.87;76.50;99977.06;10381460;28;20048;-75
2023/09/22 09:06:20;;;;;;;1999.90;999.90;;;;;;;20.27;76.35;99991.22;10381227;28;20049;-73
2023/09/22 09:11:22;;;;;;;1999.90;999.90;;;;;;;20.72;75.19;99995.06;10381002;28;20132;-73
2023/09/22 09:16:32;;;;;;;1999.90;999.90;;;;;;;18.89;75.22;100015.75;10381793;28;20056;-75
2023/09/22 09:21:35;;;;;;;1999.90;999.90;;;;;;;17.14;83.11;100013.06;10380624;28;20053;-71
2023/09/22 09:26:37;;;;;;;1999.90;999.90;;;;;;;19.16;78.49;100013.84;10363535;28;20057;-72
2023/09/22 09:31:47;;;;;;;1999.90;999.90;;;;;;;20.35;71.63;100017.78;10380209;28;20054;-71
2023/09/22 09:37:14;;;;;;;1999.90;999.90;;;;;;;19.81;71.15;100025.53;10379918;28;20049;-73
2023/09/22 09:42:18;;;;;;;1999.90;999.90;;;;;;;18.78;76.61;100021.34;10380987;28;20056;-72
2023/09/22 09:47:42;;;;;;;1999.90;999.90;;;;;;;17.89;79.48;100028.63;10378912;28;20510;-73
2023/09/22 09:52:52;;;;;;;1999.90;999.90;;;;;;;19.05;69.89;100011.50;10379421;28;20058;-73
2023/09/22 09:57:56;;;;;;;1999.90;999.90;;;;;;;18.17;77.69;100029.31;10380352;28;20132;-72
2023/09/22 10:03:01;;;;;;;1999.90;999.90;;;;;;;17.62;80.16;100019.78;10378372;28;20045;-72
2023/09/22 10:08:06;;;;;;;1999.90;999.90;;;;;;;20.10;72.73;100002.91;10378361;28;20076;-72
2023/09/22 10:13:09;;;;;;;1999.90;999.90;;;;;;;19.01;72.19;100008.31;10379735;28;20078;-73
2023/09/22 10:18:17;;;;;;;1999.90;999.90;;;;;;;18.37;74.99;100015.84;10378821;28;20077;-72
2023/09/22 10:23:23;;;;;;;1999.90;999.90;;;;;;;20.27;70.49;100003.69;10362731;28;20050;-72
2023/09/22 10:28:28;;;;;;;1999.90;999.90;;;;;;;20.90;66.28;99988.69;10378234;28;20529;-72
2023/09/22 10:33:32;;;;;;;1999.90;999.90;;;;;;;21.20;65.02;99992.31;10377719;28;20057;-73
2023/09/22 10:38:55;;;;;;;1999.90;999.90;;;;;;;22.10;67.00;99987.25;10377578;28;20060;-73
2023/09/22 10:43:58;;;;;;;1999.90;999.90;;;;;;;20.90;61.06;100005.47;10378528;28;20045;-73
2023/09/22 10:49:01;;;;;;;1999.90;999.90;;;;;;;21.42;62.36;99985.34;10360377;28;20566;-74
2023/09/22 10:54:04;;;;;;;1999.90;999.90;;;;;;;24.20;60.07;99992.53;10378155;28;20054;-75
2023/09/22 10:59:07;;;;;;;1999.90;999.90;;;;;;;23.05;58.24;99999.75;10376731;28;20042;-74
2023/09/22 11:04:10;;;;;;;1999.90;999.90;;;;;;;22.28;59.61;99998.41;10375993;28;20486;-75
2023/09/22 11:09:14;;;;;;;1999.90;999.90;;;;;;;22.43;60.14;100001.88;10377540;28;20070;-76
2023/09/22 11:14:20;;;;;;;1999.90;999.90;;;;;;;24.82;55.27;99993.44;10375393;28;20050;-76
2023/09/22 11:19:22;;;;;;;1999.90;999.90;;;;;;;25.68;51.50;100002.69;10359135;28;20112;-76
2023/09/22 11:24:25;;;;;;;1999.90;999.90;;;;;;;23.07;55.71;100013.75;10376777;28;20058;-77
2023/09/22 11:29:28;;;;;;;1999.90;999.90;;;;;;;21.12;59.50;100026.97;10375052;28;20049;-71
2023/09/22 11:34:30;;;;;;;1999.90;999.90;;;;;;;19.53;66.67;100038.28;10376017;28;20141;-73
2023/09/22 11:39:34;;;;;;;1999.90;999.90;;;;;;;21.55;60.99;100039.84;10376328;28;20046;-72
2023/09/22 11:44:36;;;;;;;1999.90;999.90;;;;;;;19.94;65.65;100044.44;10375149;28;20058;-72
2023/09/22 11:49:39;;;;;;;1999.90;999.90;;;;;;;20.65;61.94;100057.13;10375396;28;20476;-74
2023/09/22 11:54:41;;;;;;;1999.90;999.90;;;;;;;22.97;59.81;100040.72;10374676;28;20133;-73
2023/09/22 11:59:45;;;;;;;1999.90;999.90;;;;;;;21.36;60.03;100060.59;10357688;28;20050;-73
2023/09/22 12:04:47;;;;;;;1999.90;999.90;;;;;;;22.95;55.46;100040.09;10373832;28;20081;-66
2023/09/22 12:09:50;;;;;;;1999.90;999.90;;;;;;;23.04;56.34;100037.31;10375413;28;20042;-70
2023/09/22 12:14:52;;;;;;;1999.90;999.90;;;;;;;21.94;60.30;100055.69;10375237;28;20054;-70
2023/09/22 12:19:54;;;;;;;1999.90;999.90;;;;;;;22.84;55.18;100050.41;10375060;28;20090;-70
2023/09/22 12:24:57;;;;;;;1999.90;999.90;;;;;;;21.96;57.45;100053.66;10356974;28;20577;-70
2023/09/22 12:30:00;;;;;;;1999.90;999.90;;;;;;;23.60;54.30;100058.84;10374713;28;20057;-73
2023/09/22 12:35:02;;;;;;;1999.90;999.90;;;;;;;21.89;55.71;100056.22;10373055;28;20050;-72
2023/09/22 12:40:05;;;;;;;1999.90;999.90;;;;;;;21.88;59.85;100062.56;10357213;28;20057;-72
2023/09/22 12:45:08;;;;;;;1999.90;999.90;;;;;;;21.68;59.13;100064.06;10374562;28;20124;-72
2023/09/22 12:50:11;;;;;;;1999.90;999.90;;;;;;;20.75;60.00;100076.38;10374469;28;20124;-68
2023/09/22 12:55:13;;;;;;;1999.90;999.90;;;;;;;21.55;57.30;100072.63;10373768;28;20487;-70
2023/09/22 13:00:16;;;;;;;1999.90;999.90;;;;;;;20.61;60.74;100064.59;10340227;28;20514;-70
2023/09/22 13:05:19;;;;;;;1999.90;999.90;;;;;;;20.86;62.26;100061.84;10356958;28;20061;-70
2023/09/22 13:10:22;;;;;;;1999.90;999.90;;;;;;;20.15;60.81;100059.84;10374080;28;20124;-70
2023/09/22 13:15:24;;;;;;;1999.90;999.90;;;;;;;18.96;64.75;100078.78;10373962;28;20080;-69
2023/09/22 13:20:27;;;;;;;1999.90;999.90;;;;;;;19.63;62.31;100070.81;10356080;28;20052;-71
2023/09/22 13:25:35;;;;;;;1999.90;999.90;;;;;;;19.23;66.54;100072.38;10373546;28;20058;-71
2023/09/22 13:30:42;;;;;;;1999.90;999.90;;;;;;;18.67;68.91;100082.59;10356413;28;20057;-71
2023/09/22 13:35:45;;;;;;;1999.90;999.90;;;;;;;20.40;64.15;100073.94;10374963;28;20058;-71
2023/09/22 13:40:50;;;;;;;1999.90;999.90;;;;;;;20.91;62.86;100073.66;10380356;28;20428;-71
2023/09/22 13:45:52;;;;;;;1999.90;999.90;;;;;;;19.82;65.71;100085.59;10380913;28;20092;-71
2023/09/22 13:50:55;;;;;;;1999.90;999.90;;;;;;;19.15;66.15;100096.25;10380708;28;20058;-71
2023/09/22 13:55:57;;;;;;;1999.90;999.90;;;;;;;19.47;66.66;100093.69;10379889;28;20494;-70
2023/09/22 14:01:10;;;;;;;1999.90;999.90;;;;;;;19.34;65.46;100090.66;10379625;28;20046;-70
2023/09/22 14:06:18;;;;;;;1999.90;999.90;;;;;;;19.09;66.93;100095.06;10379535;28;20506;-70
2023/09/22 14:11:21;;;;;;;1999.90;999.90;;;;;;;19.08;68.75;100096.91;10379896;28;20056;-70
2023/09/22 14:16:25;;;;;;;1999.90;999.90;;;;;;;19.38;65.83;100093.81;10362263;28;20056;-71
2023/09/22 14:21:30;;;;;;;1999.90;999.90;;;;;;;18.63;69.05;100090.03;10352407;28;20046;-70
2023/09/22 14:26:33;;;;;;;1999.90;999.90;;;;;;;18.82;69.27;100094.25;10338430;28;20372;-70
2023/09/22 14:31:37;;;;;;;1999.90;999.90;;;;;;;18.77;71.23;100109.00;10338594;28;20046;-70
2023/09/22 14:36:40;;;;;;;1999.90;999.90;;;;;;;18.31;74.00;100099.44;10338369;28;20054;-70
2023/09/22 14:41:42;;;;;;;1999.90;999.90;;;;;;;18.26;73.27;100109.69;10338122;28;20078;-70
2023/09/22 14:46:44;;;;;;;1999.90;999.90;;;;;;;18.65;73.10;100105.78;10320854;28;20054;-70
2023/09/22 14:51:47;;;;;;;1999.90;999.90;;;;;;;18.24;75.54;100113.47;10320601;28;20046;-70
2023/09/22 14:56:49;;;;;;;1999.90;999.90;;;;;;;17.77;79.89;100120.69;10336998;28;20407;-69
2023/09/22 15:01:52;;;;;;;1999.90;999.90;;;;;;;17.75;77.44;100119.16;10337422;28;20161;-69
2023/09/22 15:06:55;;;;;;;1999.90;999.90;;;;;;;17.52;78.77;100127.53;10319333;28;20095;-69
2023/09/22 15:11:57;;;;;;;1999.90;999.90;;;;;;;17.52;78.13;100134.66;10336366;28;20073;-69
2023/09/22 15:17:02;;;;;;;1999.90;999.90;;;;;;;17.30;85.38;100144.66;10336892;28;20054;-69
2023/09/22 15:22:04;;;;;;;1999.90;999.90;;;;;;;17.31;84.70;100137.56;10336534;28;20046;-74
2023/09/22 15:27:07;;;;;;;1999.90;999.90;;;;;;;16.87;88.32;100149.56;10336005;28;20062;-74
2023/09/22 15:32:11;;;;;;;1999.90;999.90;;;;;;;16.53;96.17;100157.16;10335495;28;20072;-75
2023/09/22 15:37:13;;;;;;;1999.90;999.90;;;;;;;16.15;100.00;100164.16;10319072;28;20130;-74
2023/09/22 15:42:16;;;;;;;1999.90;999.90;;;;;;;15.77;100.00;100168.47;10335197;28;20507;-73
2023/09/22 15:47:18;;;;;;;1999.90;999.90;;;;;;;15.57;100.00;100173.66;10335088;28;20406;-72
2023/09/22 15:52:21;;;;;;;1999.90;999.90;;;;;;;15.81;100.00;100180.41;10335800;28;20055;-73
2023/09/22 15:57:24;;;;;;;1999.90;999.90;;;;;;;15.37;100.00;100185.97;10335245;28;20050;-74
2023/09/22 16:02:26;;;;;;;1999.90;999.90;;;;;;;15.05;100.00;100188.75;10334777;28;20133;-73
2023/09/22 16:07:32;;;;;;;1999.90;999.90;;;;;;;15.24;100.00;100188.81;10335004;28;20062;-73
2023/09/22 16:12:34;;;;;;;1999.90;999.90;;;;;;;15.08;100.00;100200.81;10318019;28;20046;-73
2023/09/22 16:17:37;;;;;;;1999.90;999.90;;;;;;;15.02;100.00;100208.28;10334129;28;20057;-73
2023/09/22 16:22:39;;;;;;;1999.90;999.90;;;;;;;14.94;100.00;100209.91;10316908;28;20491;-74
2023/09/22 16:27:42;;;;;;;1999.90;999.90;;;;;;;14.82;100.00;100217.88;10316452;28;20389;-74
2023/09/22 16:32:44;;;;;;;1999.90;999.90;;;;;;;14.59;100.00;100206.66;10333721;28;20561;-73
2023/09/22 16:37:47;;;;;;;1999.90;999.90;;;;;;;14.58;100.00;100202.31;10334127;28;20089;-73
2023/09/22 16:42:50;;;;;;;1999.90;999.90;;;;;;;14.50;100.00;100179.25;10334170;28;20056;-72
2023/09/22 16:47:52;;;;;;;1999.90;999.90;;;;;;;14.04;100.00;100187.50;10334037;28;20121;-72
2023/09/22 16:52:54;;;;;;;1999.90;999.90;;;;;;;14.40;100.00;100204.69;10333311;28;20054;-72
2023/09/22 16:57:57;;;;;;;1999.90;999.90;;;;;;;14.08;100.00;100213.44;10333098;28;20108;-72
2023/09/22 17:03:00;;;;;;;1999.90;999.90;;;;;;;14.11;100.00;100207.09;10333754;28;20053;-73
2023/09/22 17:08:04;;;;;;;1999.90;999.90;;;;;;;14.05;100.00;100232.09;10316031;28;20050;-72
2023/09/22 17:13:08;;;;;;;1999.90;999.90;;;;;;;13.98;100.00;100224.84;10338143;28;20062;-73
2023/09/22 17:18:12;;;;;;;1999.90;999.90;;;;;;;13.71;100.00;100218.19;10341491;28;20052;-73
2023/09/22 17:23:15;;;;;;;1999.90;999.90;;;;;;;13.67;100.00;100237.84;10341263;28;20064;-73
2023/09/22 17:28:17;;;;;;;1999.90;999.90;;;;;;;13.77;100.00;100224.75;10340210;28;20161;-74
2023/09/22 17:33:20;;;;;;;1999.90;999.90;;;;;;;13.53;100.00;100238.91;10322960;28;20133;-74
2023/09/22 17:38:23;;;;;;;1999.90;999.90;;;;;;;13.49;100.00;100240.09;10340679;28;20046;-74
2023/09/22 17:43:25;;;;;;;1999.90;999.90;;;;;;;13.56;100.00;100244.75;10323261;28;20052;-74
2023/09/22 17:48:29;;;;;;;1999.90;999.90;;;;;;;13.56;100.00;100257.06;10340356;28;20061;-74
2023/09/22 17:53:31;;;;;;;1999.90;999.90;;;;;;;13.33;100.00;100269.38;10322894;28;20051;-74
2023/09/22 17:58:33;;;;;;;1999.90;999.90;;;;;;;13.29;100.00;100267.91;10339810;28;20064;-74
2023/09/22 18:03:36;;;;;;;1999.90;999.90;;;;;;;13.19;100.00;100284.38;10338705;28;20457;-75
2023/09/22 18:08:38;;;;;;;1999.90;999.90;;;;;;;13.23;100.00;100289.41;10321568;28;20483;-75
2023/09/22 18:13:40;;;;;;;1999.90;999.90;;;;;;;13.21;100.00;100292.16;10339299;28;20054;-76
2023/09/22 18:18:43;;;;;;;1999.90;999.90;;;;;;;13.48;100.00;100285.75;10339181;28;20078;-76
2023/09/22 18:23:46;;;;;;;1999.90;999.90;;;;;;;13.42;100.00;100302.03;10338367;28;20109;-76
2023/09/22 18:29:03;;;;;;;1999.90;999.90;;;;;;;13.37;100.00;100300.56;10323046;28;20061;-76
2023/09/22 18:34:08;;;;;;;1999.90;999.90;;;;;;;13.39;100.00;100313.59;10338668;28;20050;-77
2023/09/22 18:39:10;;;;;;;1999.90;999.90;;;;;;;13.44;100.00;100305.38;10350574;22;20050;-76
2023/09/22 18:44:13;;;;;;;1999.90;999.90;;;;;;;13.30;100.00;100303.78;10361419;28;20084;-75
2023/09/22 18:49:15;;;;;;;1999.90;999.90;;;;;;;13.28;100.00;100314.41;10377328;28;20058;-76
2023/09/22 18:54:17;;;;;;;1999.90;999.90;;;;;;;13.32;100.00;100304.53;10378418;28;20061;-76
2023/09/22 18:59:21;;;;;;;1999.90;999.90;;;;;;;13.30;100.00;100323.00;10360071;28;20498;-77
2023/09/22 19:04:23;;;;;;;1999.90;999.90;;;;;;;13.12;100.00;100332.28;10378022;28;20045;-77
2023/09/22 19:09:26;;;;;;;1999.90;999.90;;;;;;;13.19;100.00;100341.38;10360413;28;20081;-77
2023/09/22 19:14:28;;;;;;;1999.90;999.90;;;;;;;13.29;100.00;100342.34;10377659;28;20129;-78
2023/09/22 19:19:31;;;;;;;1999.90;999.90;;;;;;;13.12;100.00;100348.91;10376225;28;20052;-77
2023/09/22 19:24:33;;;;;;;1999.90;999.90;;;;;;;13.32;100.00;100352.69;10359979;28;20054;-78
2023/09/22 19:29:37;;;;;;;1999.90;999.90;;;;;;;13.32;100.00;100357.09;10377139;28;20128;-78
2023/09/22 19:34:39;;;;;;;1999.90;999.90;;;;;;;13.26;100.00;100360.16;10375547;28;20123;-78
2023/09/22 19:39:42;;;;;;;1999.90;999.90;;;;;;;13.35;100.00;100364.78;10376429;28;20053;-78
2023/09/22 19:44:45;;;;;;;1999.90;999.90;;;;;;;13.32;100.00;100368.44;10359140;28;20049;-78
2023/09/22 19:49:51;;;;;;;1999.90;999.90;;;;;;;13.46;100.00;100380.53;10358973;28;20049;-79
2023/09/22 19:54:53;;;;;;;1999.90;999.90;;;;;;;13.32;100.00;100381.59;10375655;28;20133;-78
2023/09/22 19:59:56;;;;;;;1999.90;999.90;;;;;;;13.25;100.00;100390.06;10358625;28;20120;-78
2023/09/22 20:04:58;;;;;;;1999.90;999.90;;;;;;;13.32;100.00;100394.75;10358444;28;20046;-79
2023/09/22 20:10:01;;;;;;;1999.90;999.90;;;;;;;13.43;100.00;100398.34;10358322;28;20049;-75
2023/09/22 20:15:03;;;;;;;1999.90;999.90;;;;;;;13.43;100.00;100385.22;10358096;28;20128;-77
2023/09/22 20:20:10;;;;;;;1999.90;999.90;;;;;;;13.00;100.00;100384.81;10374135;28;20057;-81
2023/09/22 20:25:12;;;;;;;1999.90;999.90;;;;;;;12.67;100.00;100401.25;10374242;28;20058;-80
2023/09/22 20:30:15;;;;;;;1999.90;999.90;;;;;;;12.63;100.00;100411.16;10374004;28;20050;-79
2023/09/22 20:35:17;;;;;;;1999.90;999.90;;;;;;;12.66;100.00;100411.88;10375066;28;20100;-77
2023/09/22 20:40:19;;;;;;;1999.90;999.90;;;;;;;12.47;100.00;100421.06;10374289;28;20069;-77
2023/09/22 20:45:22;;;;;;;1999.90;999.90;;;;;;;12.60;100.00;100423.66;10378450;28;20455;-76
2023/09/22 20:50:26;;;;;;;1999.90;999.90;;;;;;;12.62;100.00;100433.13;10388121;28;20081;-77
2023/09/22 20:55:34;;;;;;;1999.90;999.90;;;;;;;12.46;100.00;100448.28;10370045;28;20100;-80
2023/09/22 21:00:37;;;;;;;1999.90;999.90;;;;;;;12.50;100.00;100455.00;10387370;28;20384;-81
2023/09/22 21:05:40;;;;;;;1999.90;999.90;;;;;;;12.43;100.00;100462.47;10387922;28;20054;-80
2023/09/22 21:10:42;;;;;;;1999.90;999.90;;;;;;;12.48;100.00;100474.44;10386658;28;20048;-79
2023/09/22 21:15:55;;;;;;;1999.90;999.90;;;;;;;12.46;100.00;100474.56;10387707;28;20096;-78
2023/09/22 21:21:04;;;;;;;1999.90;999.90;;;;;;;12.58;100.00;100484.19;10386378;28;20054;-78
2023/09/22 21:26:07;;;;;;;1999.90;999.90;;;;;;;12.49;100.00;100481.34;10387589;28;20046;-78
2023/09/22 21:31:10;;;;;;;1999.90;999.90;;;;;;;12.51;100.00;100492.59;10385711;28;20140;-78
2023/09/22 21:36:13;;;;;;;1999.90;999.90;;;;;;;12.49;100.00;100497.09;10386717;28;20490;-78
2023/09/22 21:41:15;;;;;;;1999.90;999.90;;;;;;;12.61;100.00;100498.91;10386666;28;20048;-79
2023/09/22 21:46:19;;;;;;;1999.90;999.90;;;;;;;12.54;100.00;100500.25;10386583;28;20132;-79
2023/09/22 21:51:24;;;;;;;1999.90;999.90;;;;;;;12.51;100.00;100501.31;10369093;28;20124;-78